createdAt,value
2022-10-31T00:00:30.640Z,100806.09
2022-10-31T00:02:57.371Z,100798.44
2022-10-31T00:05:23.934Z,100804.41
2022-10-31T00:08:00.576Z,100807.13
2022-10-31T00:10:27.426Z,100809.03
2022-10-31T00:12:53.860Z,100805.69
2022-10-31T00:15:21.077Z,100805.75
2022-10-31T00:17:47.992Z,100811.78
2022-10-31T00:20:16.474Z,100797.81
2022-10-31T00:22:43.479Z,100802.16
2022-10-31T00:25:09.994Z,100802.16
2022-10-31T00:27:36.875Z,100798.38
2022-10-31T00:30:03.762Z,100799.81
2022-10-31T00:32:31.163Z,100796.47
2022-10-31T00:34:57.619Z,100803.53
2022-10-31T00:37:24.778Z,100811.13
2022-10-31T00:39:51.316Z,100798.34
2022-10-31T00:42:17.751Z,100802.84
2022-10-31T00:44:45.266Z,100799.44
2022-10-31T00:47:11.889Z,100805.28
2022-10-31T00:49:38.455Z,100810.47
2022-10-31T00:52:05.354Z,100805.97
2022-10-31T00:54:31.852Z,100812.97
2022-10-31T00:56:59.043Z,100808.81
2022-10-31T00:59:26.987Z,100807.44
2022-10-31T01:01:53.775Z,100810.03
2022-10-31T01:04:21.141Z,100821.25
2022-10-31T01:06:49.348Z,100809.81
2022-10-31T01:09:16.740Z,100819.59
2022-10-31T01:11:43.449Z,100811.97
2022-10-31T01:14:10.754Z,100821.13
2022-10-31T01:16:37.149Z,100823.81
2022-10-31T01:19:03.946Z,100826.56
2022-10-31T01:21:50.654Z,100826.03
2022-10-31T01:24:37.194Z,100827.91
2022-10-31T01:27:23.642Z,100831.22
2022-10-31T01:30:10.646Z,100821.72
2022-10-31T01:32:58.377Z,100832.78
2022-10-31T01:35:45.193Z,100835.16
2022-10-31T01:38:11.619Z,100832.47
2022-10-31T01:40:38.357Z,100829.06
2022-10-31T01:43:04.768Z,100836.00
2022-10-31T01:45:31.762Z,100834.69
2022-10-31T01:47:58.677Z,100836.13
2022-10-31T01:50:39.352Z,100827.13
2022-10-31T01:53:07.327Z,100828.72
2022-10-31T01:55:39.442Z,100820.69
2022-10-31T01:58:10.612Z,100821.66
2022-10-31T02:00:37.998Z,100825.81
2022-10-31T02:03:04.649Z,100817.22
2022-10-31T02:05:31.725Z,100813.75
2022-10-31T02:08:14.833Z,100813.75
2022-10-31T02:10:43.313Z,100819.09
2022-10-31T02:13:10.365Z,100817.34
2022-10-31T02:15:45.980Z,100812.16
2022-10-31T02:18:12.677Z,100807.09
2022-10-31T02:21:09.962Z,100821.09
2022-10-31T02:24:04.992Z,100803.00
2022-10-31T02:26:54.443Z,100809.94
2022-10-31T02:29:56.040Z,100806.53
2022-10-31T02:32:58.407Z,100804.53
2022-10-31T02:35:38.137Z,100805.50
2022-10-31T02:38:19.417Z,100798.78
2022-10-31T02:40:52.362Z,100801.63
2022-10-31T02:44:06.871Z,100797.34
2022-10-31T02:46:36.658Z,100799.84
2022-10-31T02:49:12.873Z,100794.75
2022-10-31T02:51:40.392Z,100783.41
2022-10-31T02:54:18.518Z,100786.03
2022-10-31T02:56:45.178Z,100789.63
2022-10-31T02:59:11.858Z,100785.13
2022-10-31T03:02:03.230Z,100782.78
2022-10-31T03:04:45.470Z,100774.16
2022-10-31T03:07:28.926Z,100778.91
2022-10-31T03:10:14.973Z,100779.84
2022-10-31T03:13:03.263Z,100782.75
2022-10-31T03:15:37.128Z,100785.19
2022-10-31T03:18:18.702Z,100790.53
2022-10-31T03:20:53.310Z,100794.97
2022-10-31T03:23:23.665Z,100792.41
2022-10-31T03:25:54.874Z,100793.19
2022-10-31T03:28:31.782Z,100791.28
2022-10-31T03:31:03.515Z,100791.31
2022-10-31T03:33:36.825Z,100786.94
2022-10-31T03:36:07.067Z,100789.78
2022-10-31T03:38:37.062Z,100787.13
2022-10-31T03:41:06.040Z,100787.00
2022-10-31T03:43:39.720Z,100782.50
2022-10-31T03:46:06.776Z,100785.31
2022-10-31T03:48:33.562Z,100789.44
2022-10-31T03:51:26.765Z,100788.94
2022-10-31T03:54:04.957Z,100788.75
2022-10-31T03:56:38.236Z,100790.69
2022-10-31T03:59:11.447Z,100793.25
2022-10-31T04:01:44.391Z,100794.16
2022-10-31T04:04:12.142Z,100782.16
2022-10-31T04:06:41.394Z,100788.94
2022-10-31T04:09:10.408Z,100789.44
2022-10-31T04:11:43.239Z,100788.41
2022-10-31T04:14:33.942Z,100789.59
2022-10-31T04:17:03.360Z,100779.88
2022-10-31T04:19:35.330Z,100785.63
2022-10-31T04:22:02.580Z,100774.00
2022-10-31T04:24:29.615Z,100777.38
2022-10-31T04:26:56.065Z,100771.28
2022-10-31T04:29:23.863Z,100768.78
2022-10-31T04:31:51.338Z,100773.09
2022-10-31T04:34:17.736Z,100770.31
2022-10-31T04:36:44.705Z,100777.44
2022-10-31T04:39:14.392Z,100780.69
2022-10-31T04:41:47.387Z,100777.00
2022-10-31T04:44:14.883Z,100773.06
2022-10-31T04:46:41.966Z,100785.81
2022-10-31T04:49:09.334Z,100784.03
2022-10-31T04:51:36.286Z,100782.34
2022-10-31T04:54:02.953Z,100778.75
2022-10-31T04:56:29.458Z,100779.63
2022-10-31T04:59:02.378Z,100779.72
2022-10-31T05:01:38.389Z,100782.50
2022-10-31T05:04:05.936Z,100786.25
2022-10-31T05:06:32.819Z,100788.22
2022-10-31T05:08:59.608Z,100791.75
2022-10-31T05:11:26.037Z,100791.91
2022-10-31T05:13:54.953Z,100798.91
2022-10-31T05:16:59.946Z,100801.81
2022-10-31T05:19:46.530Z,100805.41
2022-10-31T05:22:33.449Z,100795.34
2022-10-31T05:25:00.269Z,100792.78
2022-10-31T05:27:27.133Z,100794.50
2022-10-31T05:29:53.594Z,100789.38
2022-10-31T05:32:20.318Z,100791.34
2022-10-31T05:35:23.286Z,100791.34
2022-10-31T05:38:15.927Z,100782.88
2022-10-31T05:40:43.400Z,100780.22
2022-10-31T05:43:09.978Z,100773.19
2022-10-31T05:45:37.209Z,100773.50
2022-10-31T05:48:09.875Z,100774.56
2022-10-31T05:50:56.547Z,100776.09
2022-10-31T05:53:25.336Z,100774.50
2022-10-31T05:55:51.762Z,100775.41
2022-10-31T05:58:20.310Z,100783.28
2022-10-31T06:00:57.879Z,100779.03
2022-10-31T06:03:24.828Z,100784.34
2022-10-31T06:05:57.830Z,100781.06
2022-10-31T06:08:30.132Z,100789.00
2022-10-31T06:11:00.311Z,100776.94
2022-10-31T06:13:46.658Z,100787.59
2022-10-31T06:16:21.823Z,100783.91
2022-10-31T06:18:48.674Z,100787.38
2022-10-31T06:21:18.071Z,100784.72
2022-10-31T06:23:49.089Z,100786.44
2022-10-31T06:26:44.785Z,100783.97
2022-10-31T06:29:12.456Z,100784.88
2022-10-31T06:31:55.703Z,100792.66
2022-10-31T06:34:22.469Z,100787.38
2022-10-31T06:36:49.068Z,100783.00
2022-10-31T06:39:16.942Z,100783.91
2022-10-31T06:41:43.390Z,100777.00
2022-10-31T06:44:11.154Z,100782.06
2022-10-31T06:46:57.836Z,100781.00
2022-10-31T06:49:47.490Z,100787.25
2022-10-31T06:52:16.717Z,100790.72
2022-10-31T06:54:43.343Z,100779.31
2022-10-31T06:57:10.194Z,100786.28
2022-10-31T06:59:38.481Z,100780.56
2022-10-31T07:02:13.856Z,100790.78
2022-10-31T07:04:43.096Z,100782.09
2022-10-31T07:07:13.195Z,100776.66
2022-10-31T07:09:39.813Z,100773.94
2022-10-31T07:12:08.386Z,100777.00
2022-10-31T07:14:38.702Z,100775.09
2022-10-31T07:17:05.798Z,100771.22
2022-10-31T07:19:40.320Z,100782.34
2022-10-31T07:22:06.751Z,100780.97
2022-10-31T07:24:34.537Z,100777.72
2022-10-31T07:27:27.851Z,100778.63
2022-10-31T07:29:54.367Z,100788.16
2022-10-31T07:32:21.266Z,100785.50
2022-10-31T07:34:53.374Z,100770.94
2022-10-31T07:37:28.157Z,100776.09
2022-10-31T07:39:55.826Z,100768.69
2022-10-31T07:42:22.537Z,100777.16
2022-10-31T07:44:52.676Z,100778.59
2022-10-31T07:47:42.098Z,100786.03
2022-10-31T07:50:30.063Z,100781.34
2022-10-31T07:53:18.699Z,100782.22
2022-10-31T07:56:14.343Z,100778.22
2022-10-31T07:58:41.441Z,100777.38
2022-10-31T08:01:08.225Z,100780.88
2022-10-31T08:03:46.703Z,100770.84
2022-10-31T08:06:31.678Z,100765.53
2022-10-31T08:09:01.664Z,100769.09
2022-10-31T08:11:28.149Z,100771.25
2022-10-31T08:13:54.788Z,100769.56
2022-10-31T08:16:21.688Z,100763.31
2022-10-31T08:18:56.467Z,100765.41
2022-10-31T08:21:23.899Z,100776.75
2022-10-31T08:23:50.596Z,100765.16
2022-10-31T08:26:20.069Z,100765.94
2022-10-31T08:28:50.679Z,100761.19
2022-10-31T08:31:20.147Z,100758.22
2022-10-31T08:33:46.512Z,100759.06
2022-10-31T08:36:19.612Z,100750.44
2022-10-31T08:39:02.421Z,100746.81
2022-10-31T08:41:31.409Z,100746.06
2022-10-31T08:43:59.404Z,100742.72
2022-10-31T08:46:26.278Z,100740.16
2022-10-31T08:48:53.347Z,100740.44
2022-10-31T08:51:20.678Z,100747.50
2022-10-31T08:53:51.194Z,100739.41
2022-10-31T08:56:35.514Z,100749.09
2022-10-31T08:59:05.452Z,100748.75
2022-10-31T09:01:45.851Z,100742.31
2022-10-31T09:04:13.091Z,100741.38
2022-10-31T09:06:50.444Z,100735.25
2022-10-31T09:09:27.748Z,100735.63
2022-10-31T09:11:54.213Z,100739.94
2022-10-31T09:14:24.175Z,100746.03
2022-10-31T09:17:16.806Z,100741.97
2022-10-31T09:20:04.678Z,100743.59
2022-10-31T09:22:34.156Z,100753.19
2022-10-31T09:25:01.506Z,100747.00
2022-10-31T09:27:28.799Z,100735.00
2022-10-31T09:29:57.365Z,100737.41
2022-10-31T09:32:23.835Z,100735.53
2022-10-31T09:34:50.664Z,100746.59
2022-10-31T09:37:20.561Z,100742.66
2022-10-31T09:39:47.142Z,100746.94
2022-10-31T09:42:56.276Z,100744.13
2022-10-31T09:45:35.720Z,100743.00
2022-10-31T09:48:19.273Z,100744.97
2022-10-31T09:51:12.219Z,100732.63
2022-10-31T09:54:07.873Z,100734.34
2022-10-31T09:56:35.727Z,100739.84
2022-10-31T09:59:07.459Z,100737.03
2022-10-31T10:02:03.857Z,100733.50
2022-10-31T10:04:44.664Z,100727.94
2022-10-31T10:07:31.489Z,100719.34
2022-10-31T10:10:48.840Z,100720.84
2022-10-31T10:14:02.625Z,100714.44
2022-10-31T10:17:05.562Z,100714.81
2022-10-31T10:19:52.451Z,100714.66
2022-10-31T10:22:47.047Z,100700.88
2022-10-31T10:25:35.872Z,100699.09
2022-10-31T10:28:23.210Z,100701.88
2022-10-31T10:30:59.665Z,100702.97
2022-10-31T10:33:33.929Z,100696.06
2022-10-31T10:36:05.806Z,100695.75
2022-10-31T10:38:40.314Z,100683.28
2022-10-31T10:41:17.177Z,100688.16
2022-10-31T10:43:44.121Z,100689.19
2022-10-31T10:46:57.564Z,100693.75
2022-10-31T10:49:46.274Z,100687.66
2022-10-31T10:52:50.477Z,100675.56
2022-10-31T10:55:26.858Z,100680.84
2022-10-31T10:57:59.199Z,100676.63
2022-10-31T11:00:39.590Z,100667.59
2022-10-31T11:03:06.877Z,100672.72
2022-10-31T11:05:53.082Z,100660.22
2022-10-31T11:08:31.865Z,100654.63
2022-10-31T11:11:05.139Z,100645.41
2022-10-31T11:13:33.993Z,100637.47
2022-10-31T11:16:07.548Z,100637.84
2022-10-31T11:18:47.873Z,100636.69
2022-10-31T11:21:30.318Z,100635.47
2022-10-31T11:24:26.161Z,100627.44
2022-10-31T11:27:03.783Z,100626.94
2022-10-31T11:29:30.725Z,100620.47
2022-10-31T11:32:00.868Z,100620.75
2022-10-31T11:34:39.126Z,100615.03
2022-10-31T11:37:17.840Z,100615.75
2022-10-31T11:39:54.466Z,100612.13
2022-10-31T11:42:23.605Z,100611.03
2022-10-31T11:44:52.797Z,100603.28
2022-10-31T11:47:26.897Z,100606.34
2022-10-31T11:49:54.429Z,100606.69
2022-10-31T11:52:25.348Z,100595.66
2022-10-31T11:54:56.724Z,100606.78
2022-10-31T11:57:28.157Z,100593.13
2022-10-31T11:59:57.558Z,100591.06
2022-10-31T12:02:25.411Z,100580.56
2022-10-31T12:04:58.834Z,100577.38
2022-10-31T12:07:25.441Z,100574.53
2022-10-31T12:09:51.897Z,100574.63
2022-10-31T12:13:09.171Z,100574.03
2022-10-31T12:15:39.162Z,100566.59
2022-10-31T12:18:24.462Z,100562.22
2022-10-31T12:21:03.463Z,100557.50
2022-10-31T12:24:08.374Z,100556.22
2022-10-31T12:27:00.538Z,100556.16
2022-10-31T12:30:07.872Z,100556.72
2022-10-31T12:32:58.019Z,100554.59
2022-10-31T12:35:27.405Z,100539.41
2022-10-31T12:38:19.168Z,100531.03
2022-10-31T12:41:00.107Z,100531.81
2022-10-31T12:43:45.685Z,100526.38
2022-10-31T12:46:25.516Z,100536.22
2022-10-31T12:49:09.185Z,100525.88
2022-10-31T12:51:38.568Z,100532.03
2022-10-31T12:54:51.307Z,100534.44
2022-10-31T12:58:02.648Z,100528.00
2022-10-31T13:00:34.890Z,100523.50
2022-10-31T13:03:26.625Z,100515.66
2022-10-31T13:05:59.093Z,100507.66
2022-10-31T13:08:35.344Z,100505.41
2022-10-31T13:11:16.572Z,100504.31
2022-10-31T13:14:14.019Z,100492.66
2022-10-31T13:16:46.645Z,100482.94
2022-10-31T13:19:20.045Z,100464.66
2022-10-31T13:22:17.488Z,100454.13
2022-10-31T13:24:54.454Z,100447.09
2022-10-31T13:27:39.449Z,100442.84
2022-10-31T13:30:22.073Z,100442.47
2022-10-31T13:33:03.469Z,100430.94
2022-10-31T13:35:52.419Z,100416.75
2022-10-31T13:38:50.130Z,100418.50
2022-10-31T13:41:28.032Z,100418.22
2022-10-31T13:44:02.924Z,100415.88
2022-10-31T13:46:32.590Z,100413.34
2022-10-31T13:48:59.739Z,100413.03
2022-10-31T13:51:31.716Z,100417.34
2022-10-31T13:54:01.528Z,100434.06
2022-10-31T13:56:31.300Z,100437.88
2022-10-31T13:59:25.883Z,100427.84
2022-10-31T14:01:58.947Z,100419.72
2022-10-31T14:04:41.032Z,100413.56
2022-10-31T14:07:11.862Z,100427.66
2022-10-31T14:09:59.960Z,100437.47
2022-10-31T14:12:43.693Z,100451.16
2022-10-31T14:15:10.543Z,100446.59
2022-10-31T14:17:51.409Z,100447.44
2022-10-31T14:20:17.769Z,100446.63
2022-10-31T14:22:44.897Z,100443.78
2022-10-31T14:25:32.163Z,100445.94
2022-10-31T14:28:01.170Z,100447.13
2022-10-31T14:30:30.206Z,100448.06
2022-10-31T14:33:10.306Z,100447.00
2022-10-31T14:36:00.061Z,100448.31
2022-10-31T14:38:57.048Z,100452.59
2022-10-31T14:41:39.510Z,100436.84
2022-10-31T14:44:42.946Z,100436.41
2022-10-31T14:47:25.561Z,100436.75
2022-10-31T14:50:24.078Z,100438.00
2022-10-31T14:52:56.287Z,100439.44
2022-10-31T14:55:24.764Z,100436.06
2022-10-31T14:58:08.725Z,100421.06
2022-10-31T15:00:36.908Z,100421.91
2022-10-31T15:03:06.577Z,100420.00
2022-10-31T15:05:37.099Z,100410.22
2022-10-31T15:08:03.954Z,100414.81
2022-10-31T15:10:38.590Z,100425.34
2022-10-31T15:13:19.476Z,100427.13
2022-10-31T15:15:52.057Z,100420.78
2022-10-31T15:18:22.423Z,100417.81
2022-10-31T15:20:50.837Z,100414.00
2022-10-31T15:23:25.402Z,100416.59
2022-10-31T15:25:58.989Z,100417.53
2022-10-31T15:28:26.342Z,100420.31
2022-10-31T15:30:58.601Z,100413.19
2022-10-31T15:33:32.407Z,100408.56
2022-10-31T15:36:04.945Z,100394.31
2022-10-31T15:38:31.776Z,100389.88
2022-10-31T15:41:07.786Z,100388.16
2022-10-31T15:43:37.995Z,100372.44
2022-10-31T15:46:09.251Z,100363.34
2022-10-31T15:48:36.283Z,100371.09
2022-10-31T15:51:03.970Z,100370.69
2022-10-31T15:53:38.131Z,100348.44
2022-10-31T15:56:09.306Z,100342.72
2022-10-31T15:58:47.306Z,100344.63
2022-10-31T16:01:32.123Z,100322.16
2022-10-31T16:04:00.728Z,100306.22
2022-10-31T16:06:28.210Z,100295.78
2022-10-31T16:08:55.323Z,100303.34
2022-10-31T16:11:43.369Z,100298.81
2022-10-31T16:14:12.845Z,100297.78
2022-10-31T16:16:50.518Z,100293.75
2022-10-31T16:19:21.124Z,100280.13
2022-10-31T16:21:53.776Z,100266.63
2022-10-31T16:24:27.421Z,100242.88
2022-10-31T16:26:58.698Z,100224.63
2022-10-31T16:29:34.460Z,100220.28
2022-10-31T16:32:01.776Z,100220.56
2022-10-31T16:34:28.494Z,100237.38
2022-10-31T16:36:54.885Z,100251.97
2022-10-31T16:39:22.228Z,100244.22
2022-10-31T16:41:52.921Z,100239.56
2022-10-31T16:44:23.614Z,100242.19
2022-10-31T16:47:09.395Z,100239.16
2022-10-31T16:49:36.256Z,100243.69
2022-10-31T16:52:03.170Z,100258.19
2022-10-31T16:54:29.961Z,100270.34
2022-10-31T16:56:58.537Z,100296.72
2022-10-31T16:59:25.171Z,100318.22
2022-10-31T17:01:51.711Z,100320.31
2022-10-31T17:04:18.809Z,100309.56
2022-10-31T17:06:45.228Z,100321.19
2022-10-31T17:09:12.432Z,100321.69
2022-10-31T17:11:49.397Z,100321.59
2022-10-31T17:14:19.027Z,100309.75
2022-10-31T17:16:45.799Z,100306.38
2022-10-31T17:19:12.696Z,100301.56
2022-10-31T17:21:41.406Z,100293.94
2022-10-31T17:24:12.662Z,100290.47
2022-10-31T17:26:39.685Z,100277.38
2022-10-31T17:29:06.598Z,100273.66
2022-10-31T17:31:36.530Z,100266.50
2022-10-31T17:34:06.879Z,100258.69
2022-10-31T17:36:34.703Z,100245.38
2022-10-31T17:39:01.315Z,100241.34
2022-10-31T17:41:28.146Z,100237.31
2022-10-31T17:43:56.641Z,100235.28
2022-10-31T17:46:23.190Z,100237.50
2022-10-31T17:48:50.143Z,100244.28
2022-10-31T17:51:17.061Z,100251.72
2022-10-31T17:53:43.992Z,100248.63
2022-10-31T17:56:11.034Z,100256.16
2022-10-31T17:58:37.899Z,100257.06
2022-10-31T18:01:10.992Z,100245.56
2022-10-31T18:03:38.718Z,100238.34
2022-10-31T18:06:06.540Z,100241.00
2022-10-31T18:08:35.137Z,100252.66
2022-10-31T18:11:20.478Z,100257.66
2022-10-31T18:13:46.986Z,100263.75
2022-10-31T18:16:16.657Z,100272.41
2022-10-31T18:18:43.584Z,100272.91
2022-10-31T18:21:10.609Z,100282.97
2022-10-31T18:23:37.061Z,100292.47
2022-10-31T18:26:04.490Z,100284.00
2022-10-31T18:28:30.957Z,100296.28
2022-10-31T18:31:01.027Z,100303.34
2022-10-31T18:33:28.105Z,100303.59
2022-10-31T18:35:54.731Z,100320.50
2022-10-31T18:38:21.622Z,100338.41
2022-10-31T18:40:48.404Z,100348.66
2022-10-31T18:43:15.384Z,100345.72
2022-10-31T18:45:52.334Z,100344.16
2022-10-31T18:48:22.834Z,100334.06
2022-10-31T18:50:49.665Z,100333.13
2022-10-31T18:53:16.169Z,100332.47
2022-10-31T18:55:45.787Z,100320.09
2022-10-31T18:58:20.101Z,100328.81
2022-10-31T19:00:46.931Z,100323.56
2022-10-31T19:03:14.556Z,100331.34
2022-10-31T19:05:41.660Z,100324.06
2022-10-31T19:08:08.938Z,100326.00
2022-10-31T19:10:54.189Z,100324.22
2022-10-31T19:13:20.549Z,100333.22
2022-10-31T19:15:47.388Z,100335.28
2022-10-31T19:18:13.782Z,100336.72
2022-10-31T19:20:40.432Z,100343.84
2022-10-31T19:23:07.201Z,100332.91
2022-10-31T19:25:33.669Z,100321.09
2022-10-31T19:28:00.725Z,100318.72
2022-10-31T19:30:27.431Z,100331.69
2022-10-31T19:32:55.743Z,100333.47
2022-10-31T19:35:22.857Z,100326.00
2022-10-31T19:37:49.249Z,100321.94
2022-10-31T19:40:15.902Z,100321.31
2022-10-31T19:42:43.739Z,100312.56
2022-10-31T19:45:10.917Z,100299.53
2022-10-31T19:47:37.965Z,100293.50
2022-10-31T19:50:04.962Z,100320.28
2022-10-31T19:52:35.760Z,100316.56
2022-10-31T19:55:03.015Z,100296.81
2022-10-31T19:57:48.836Z,100284.66
2022-10-31T20:00:16.630Z,100310.50
2022-10-31T20:02:43.291Z,100318.00
2022-10-31T20:05:09.669Z,100313.22
2022-10-31T20:07:36.942Z,100318.13
2022-10-31T20:10:03.783Z,100334.81
2022-10-31T20:12:33.134Z,100330.75
2022-10-31T20:14:59.839Z,100342.25
2022-10-31T20:17:26.202Z,100327.09
2022-10-31T20:19:53.259Z,100335.78
2022-10-31T20:22:19.742Z,100335.63
2022-10-31T20:24:46.331Z,100333.81
2022-10-31T20:27:13.748Z,100320.22
2022-10-31T20:29:40.803Z,100321.91
2022-10-31T20:32:07.198Z,100334.19
2022-10-31T20:34:34.540Z,100332.56
2022-10-31T20:37:00.921Z,100338.25
2022-10-31T20:39:27.772Z,100348.91
2022-10-31T20:41:54.637Z,100340.44
2022-10-31T20:44:21.475Z,100339.44
2022-10-31T20:46:48.162Z,100334.94
2022-10-31T20:49:14.563Z,100330.63
2022-10-31T20:51:41.334Z,100325.63
2022-10-31T20:54:07.935Z,100327.31
2022-10-31T20:56:34.624Z,100326.72
2022-10-31T20:59:01.013Z,100317.84
2022-10-31T21:01:30.330Z,100318.06
2022-10-31T21:03:58.299Z,100318.44
2022-10-31T21:06:26.286Z,100311.13
2022-10-31T21:08:54.147Z,100317.72
2022-10-31T21:11:22.897Z,100320.91
2022-10-31T21:13:50.910Z,100320.75
2022-10-31T21:16:24.937Z,100320.34
2022-10-31T21:18:52.430Z,100318.38
2022-10-31T21:21:32.100Z,100314.66
2022-10-31T21:24:11.196Z,100316.59
2022-10-31T21:26:41.676Z,100303.75
2022-10-31T21:29:08.685Z,100306.31
2022-10-31T21:31:38.098Z,100303.75
2022-10-31T21:34:04.919Z,100297.91
2022-10-31T21:36:32.016Z,100286.56
2022-10-31T21:39:03.300Z,100288.41
2022-10-31T21:41:29.694Z,100272.91
2022-10-31T21:43:57.043Z,100271.47
2022-10-31T21:46:26.385Z,100256.66
2022-10-31T21:48:53.795Z,100263.19
2022-10-31T21:51:23.281Z,100270.19
2022-10-31T21:54:08.990Z,100264.41
2022-10-31T21:56:36.637Z,100262.66
2022-10-31T21:59:04.797Z,100265.03
2022-10-31T22:01:32.259Z,100257.00
2022-10-31T22:03:59.872Z,100245.44
2022-10-31T22:06:28.191Z,100250.84
2022-10-31T22:08:55.149Z,100248.91
2022-10-31T22:11:22.107Z,100258.47
2022-10-31T22:13:50.161Z,100272.31
2022-10-31T22:16:19.378Z,100273.78
2022-10-31T22:18:47.027Z,100277.25
2022-10-31T22:21:18.857Z,100279.31
2022-10-31T22:23:51.373Z,100284.72
2022-10-31T22:26:18.591Z,100283.16
2022-10-31T22:28:48.814Z,100281.53
2022-10-31T22:31:17.734Z,100294.47
2022-10-31T22:33:47.930Z,100294.78
2022-10-31T22:36:17.671Z,100289.56
2022-10-31T22:38:45.684Z,100277.38
2022-10-31T22:41:18.020Z,100277.97
2022-10-31T22:43:45.416Z,100268.34
2022-10-31T22:46:14.988Z,100263.19
2022-10-31T22:48:48.031Z,100262.16
2022-10-31T22:51:17.732Z,100260.63
2022-10-31T22:53:45.433Z,100266.25
2022-10-31T22:56:17.013Z,100270.44
2022-10-31T22:58:44.119Z,100276.28
2022-10-31T23:01:23.418Z,100279.28
2022-10-31T23:03:50.884Z,100279.38
2022-10-31T23:06:23.812Z,100285.47
2022-10-31T23:08:51.714Z,100282.00
2022-10-31T23:11:32.759Z,100284.19
2022-10-31T23:14:16.349Z,100286.13
2022-10-31T23:16:55.130Z,100270.22
2022-10-31T23:19:26.457Z,100276.13
2022-10-31T23:22:00.305Z,100275.56
2022-10-31T23:24:36.577Z,100285.03
2022-10-31T23:27:09.505Z,100286.63
2022-10-31T23:29:37.898Z,100290.09
2022-10-31T23:32:06.365Z,100291.97
2022-10-31T23:34:32.901Z,100286.81
2022-10-31T23:36:59.758Z,100281.38
2022-10-31T23:39:26.728Z,100284.00
2022-10-31T23:41:53.474Z,100279.09
2022-10-31T23:44:20.914Z,100279.53
2022-10-31T23:46:47.805Z,100279.59
2022-10-31T23:49:14.224Z,100278.88
2022-10-31T23:51:41.230Z,100277.84
2022-10-31T23:54:07.907Z,100261.19
2022-10-31T23:56:35.180Z,100274.78
2022-10-31T23:59:02.134Z,100269.47
